Breien, North Dakota
Current Conditions -  °F | °C
As of 6:35 PM on Monday 22 Dec 2014 (Local Time) from K7L2 Reporting Station
Light Snow Light Snow  
Wind Chill: 21°   Ceiling: 100
Heat Index: 32°   Visibility: 1.5mi
Dew Point: 32°   Wind: 16mph
Humidity: 100%   Direction: 350°N
Pressure: 29.59"   Gusts: 22mph
Location:  46.2767°N, 100.811°W
Report Text: K7L2 230035Z AUTO 35014G19KT 1 1/2SM -SN BKN001 OVC008 00/00 A2959 RMK AO2 P0017
Loading
Personal Weather Stations






























Interactive Weather Map New forecast layout! Learn more

10-Day Weather Forecast

Advertisements
Track Severe Weather on mobile